My webcam more information My webcam


Thunder radar more information blitzortung!


Rain radar more information rain snow radar


Visit our other weather sites:

Template documentation
and downloads

And another site



Nearby METAR Reports

   
KAVP - Albrightsville, PA
Updated: Jan 16 2018 9:54 am
Light Snow, Mist, Overcast  
Light Snow, Mist, Overcast  
   Wind: Calm
Wind: Calm
Temperature: 26.6°F
Dew Point: 23°F
Humidity: 86%
Barometer: 30.42 inHg
Clouds: Overcast
Visibility: 1 mi
Cloud details: Mostly Cloudy 793 m,
Overcast 1097 m
KAVP 161454Z 00000KT 1SM R04/P6000FT -SN BR BKN026 OVC036 M03/M05 A3042 RMK AO2 SLP313 P0001 60002 T10331050 51008
KIWA - Apache Junction, AZ
Updated: Jan 16 2018 9:50 am
Partly Cloudy  
Partly Cloudy  
   Wind: SE 5.8 mph
Wind: SE 5.8 mph
Temperature: 46.4°F
Wind Chill: 44.6°F
Dew Point: 35.6°F
Humidity: 66%
Barometer: 30.15 inHg
Clouds: Partly Cloudy
Visibility: 20 mi
Cloud details: Partly Cloudy 4572 m
KIWA 161450Z 13005KT 20SM SCT150 08/02 A3015
KPKB - Blue Rock, OH
Updated: Jan 16 2018 9:53 am
Light Snow, Mist, Overcast  
Light Snow, Mist, Overcast  
   Wind: West 13.8 mph<br />Gust to 13.8 mph
Wind: West 13.8 mph
Gust to 13.8 mph
Temperature: 21.2°F
Wind Chill: 8.6°F
Dew Point: 17.6°F
Humidity: 86%
Barometer: 30.47 inHg
Clouds: Overcast
Visibility: 1 mi
Cloud details: Few Clouds 335 m,
Mostly Cloudy 762 m,
Overcast 1219 m
KPKB 161453Z 27012G15KT 1SM R03/P6000FT -SN BR FEW011 BKN025 OVC040 M06/M08 A3047 RMK AO2 SLP327 P0001 60002 T10611083 53015
KHVN - Branford, CT
Updated: Jan 16 2018 9:53 am
Overcast  
Overcast  
   Wind: Calm
Wind: Calm
Temperature: 26.6°F
Dew Point: 15.8°F
Humidity: 64%
Barometer: 30.52 inHg
Clouds: Overcast
Visibility: 10 mi
Cloud details: Few Clouds 610 m,
Overcast 2896 m
KHVN 161453Z 00000KT 10SM FEW020 OVC095 M03/M09 A3052 RMK AO2 SLP336 T10331094 50005 $
KPHX - Carefree, AZ
Updated: Jan 16 2018 9:51 am
Mostly Cloudy  
Mostly Cloudy  
   Wind: Calm
Wind: Calm
Temperature: 53.6°F
Dew Point: 37.4°F
Humidity: 54%
Barometer: 30.12 inHg
Clouds: Mostly Cloudy
Visibility: 10 mi
Cloud details: Few Clouds 4572 m,
Few Clouds 5486 m,
Mostly Cloudy 7620 m
KPHX 161451Z 00000KT 10SM FEW150 FEW180 BKN250 12/03 A3012 RMK AO2 SLP193 T01170028 53013
 

Script developed by  Saratoga-weather.org Adapted for the template by  Weerstation Leuven

You find our weather info also at:

WeatherCloud

Weather Underground

Citizen Weather Observer Program (CWOP)

HAMweather, WeatherForYou, PWS Weather

Anything Weather